Time;durP1;ratioP1;P1;durP2;ratioP2;P2;SDS_P1;SDS_P2;PMS_P1;PMS_P2;Temp;Humidity;BMP_temperature;BMP_pressure;BME280_temperature;BME280_humidity;BME280_pressure;Samples;Min_cycle;Max_cycle;Signal;HPM_P1;HPM_P2
2021/10/10 00:00:54;;;;;;;0.70;0.60;;;8.50;99.90;;;;;;5022528;28;20932;-70
2021/10/10 00:03:19;;;;;;;0.97;0.70;;;8.50;99.90;;;;;;5013490;28;20465;-69
2021/10/10 00:05:45;;;;;;;1.77;1.67;;;8.50;99.90;;;;;;5016153;28;20180;-69
2021/10/10 00:08:10;;;;;;;0.70;0.50;;;8.60;99.90;;;;;;5031536;28;20179;-69
2021/10/10 00:10:36;;;;;;;1.70;1.60;;;8.50;99.90;;;;;;5020828;28;20229;-73
2021/10/10 00:13:02;;;;;;;0.70;0.57;;;8.60;99.90;;;;;;5026216;28;20187;-70
2021/10/10 00:15:28;;;;;;;1.50;1.40;;;8.50;99.90;;;;;;5032241;28;20179;-70
2021/10/10 00:17:54;;;;;;;2.97;1.60;;;8.60;99.90;;;;;;5025535;28;20183;-72
2021/10/10 00:20:19;;;;;;;1.17;0.87;;;8.60;99.90;;;;;;5024118;28;20426;-72
2021/10/10 00:22:45;;;;;;;1.20;1.10;;;8.50;99.90;;;;;;5031549;28;20176;-71
2021/10/10 00:25:11;;;;;;;1.00;0.60;;;8.40;99.90;;;;;;5029536;28;20223;-72
2021/10/10 00:27:37;;;;;;;1.47;1.37;;;8.30;99.90;;;;;;5030221;28;20179;-72
2021/10/10 00:30:05;;;;;;;1.10;1.00;;;8.30;99.90;;;;;;5025800;28;20466;-73
2021/10/10 00:32:30;;;;;;;1.77;1.67;;;8.20;99.90;;;;;;5016918;28;20431;-72
2021/10/10 00:34:56;;;;;;;0.90;0.80;;;8.20;99.90;;;;;;5028208;28;20850;-72
2021/10/10 00:37:22;;;;;;;0.87;0.80;;;8.20;99.90;;;;;;5028514;28;20189;-73
2021/10/10 00:39:47;;;;;;;1.87;1.30;;;8.20;99.90;;;;;;5011710;28;20177;-71
2021/10/10 00:42:13;;;;;;;0.97;0.70;;;8.20;99.90;;;;;;5023136;28;20185;-70
2021/10/10 00:44:38;;;;;;;0.70;0.60;;;8.20;99.90;;;;;;5017265;28;20238;-71
2021/10/10 00:47:04;;;;;;;0.70;0.50;;;8.10;99.90;;;;;;5015850;28;20190;-71
2021/10/10 00:49:30;;;;;;;2.40;2.03;;;8.20;99.90;;;;;;5025351;28;20206;-70
2021/10/10 00:51:57;;;;;;;1.47;1.37;;;8.10;99.90;;;;;;5024034;28;20931;-67
2021/10/10 00:54:24;;;;;;;3.07;2.97;;;8.10;99.90;;;;;;5028255;28;20195;-70
2021/10/10 00:56:53;;;;;;;2.27;2.07;;;8.10;99.90;;;;;;5013359;28;20439;-71
2021/10/10 00:59:22;;;;;;;1.17;1.07;;;8.00;99.90;;;;;;5016061;28;20426;-71
2021/10/10 01:01:50;;;;;;;0.97;0.80;;;8.00;99.90;;;;;;5028492;28;20438;-70
2021/10/10 01:04:16;;;;;;;0.70;0.50;;;8.00;99.90;;;;;;5024750;28;20847;-70
2021/10/10 01:06:42;;;;;;;1.10;0.60;;;8.00;99.90;;;;;;5010544;28;20986;-70
2021/10/10 01:09:07;;;;;;;1.17;1.07;;;8.00;99.90;;;;;;5023972;28;20454;-70
2021/10/10 01:11:34;;;;;;;1.00;0.90;;;8.00;99.90;;;;;;5031275;28;20179;-70
2021/10/10 01:14:01;;;;;;;1.37;0.93;;;8.00;99.90;;;;;;5020824;28;20603;-70
2021/10/10 01:16:26;;;;;;;1.80;1.70;;;7.90;99.90;;;;;;5023372;28;20445;-70
2021/10/10 01:18:55;;;;;;;0.70;0.50;;;7.90;99.90;;;;;;5030817;28;20426;-69
2021/10/10 01:21:21;;;;;;;0.80;0.80;;;7.90;99.90;;;;;;5019794;28;20178;-69
2021/10/10 01:23:47;;;;;;;0.70;0.50;;;7.90;99.90;;;;;;5016527;28;21542;-69
2021/10/10 01:26:12;;;;;;;2.00;1.90;;;7.80;99.90;;;;;;5024530;28;20263;-68
2021/10/10 01:28:37;;;;;;;1.77;1.67;;;7.80;99.90;;;;;;5025387;28;20245;-69
2021/10/10 01:31:03;;;;;;;0.87;0.87;;;7.70;99.90;;;;;;5010250;28;20199;-69
2021/10/10 01:33:29;;;;;;;1.60;1.33;;;7.70;99.90;;;;;;5013368;28;20246;-69
2021/10/10 01:35:54;;;;;;;0.83;0.80;;;7.70;99.90;;;;;;5027991;28;20177;-69
2021/10/10 01:38:20;;;;;;;0.70;0.50;;;7.70;99.90;;;;;;5012041;28;20183;-69
2021/10/10 01:40:46;;;;;;;1.20;1.10;;;7.70;99.90;;;;;;5020439;28;20188;-69
2021/10/10 01:43:13;;;;;;;1.10;1.00;;;7.70;99.90;;;;;;5022197;28;20216;-69
2021/10/10 01:45:38;;;;;;;1.67;1.57;;;7.70;99.90;;;;;;5016759;28;20499;-69
2021/10/10 01:48:04;;;;;;;0.80;0.70;;;7.70;99.90;;;;;;5030449;28;20525;-69
2021/10/10 01:50:32;;;;;;;0.70;0.50;;;7.70;99.90;;;;;;5019529;28;20214;-68
2021/10/10 01:52:58;;;;;;;0.80;0.80;;;7.70;99.90;;;;;;5029057;28;20457;-70
2021/10/10 01:55:24;;;;;;;1.63;0.80;;;7.70;99.90;;;;;;5030264;28;20430;-70
2021/10/10 01:57:50;;;;;;;0.87;0.77;;;7.70;99.90;;;;;;5034195;28;20437;-70
2021/10/10 02:00:15;;;;;;;1.40;1.23;;;7.70;99.90;;;;;;5025388;28;20666;-69
2021/10/10 02:02:41;;;;;;;2.43;1.37;;;7.70;99.90;;;;;;5026376;28;20173;-69
2021/10/10 02:05:08;;;;;;;1.20;0.80;;;7.60;99.90;;;;;;5033251;28;20614;-69
2021/10/10 02:07:33;;;;;;;1.23;1.10;;;7.60;99.90;;;;;;5019305;28;20175;-69
2021/10/10 02:09:59;;;;;;;0.90;0.80;;;7.60;99.90;;;;;;5022391;28;20927;-69
2021/10/10 02:12:24;;;;;;;1.00;0.97;;;7.50;99.90;;;;;;5024964;28;20183;-69
2021/10/10 02:14:50;;;;;;;1.90;1.80;;;7.50;99.90;;;;;;5028940;28;20239;-69
2021/10/10 02:17:16;;;;;;;0.80;0.70;;;7.50;99.90;;;;;;5021004;28;20275;-69
2021/10/10 02:19:41;;;;;;;1.63;1.20;;;7.40;99.90;;;;;;5017160;28;20196;-69
2021/10/10 02:22:07;;;;;;;1.10;1.00;;;7.40;99.90;;;;;;5024740;28;20259;-69
2021/10/10 02:24:32;;;;;;;1.00;0.73;;;7.40;99.90;;;;;;5032723;28;20202;-69
2021/10/10 02:26:58;;;;;;;2.60;1.03;;;7.30;99.90;;;;;;5031817;28;20645;-69
2021/10/10 02:29:25;;;;;;;1.30;1.20;;;7.30;99.90;;;;;;5017312;28;20251;-68
2021/10/10 02:31:50;;;;;;;2.30;1.70;;;7.30;99.90;;;;;;5020867;28;20214;-70
2021/10/10 02:34:18;;;;;;;0.70;0.50;;;7.30;99.90;;;;;;5026163;28;20485;-70
2021/10/10 02:36:44;;;;;;;0.80;0.70;;;7.20;99.90;;;;;;5026790;28;20182;-70
2021/10/10 02:39:09;;;;;;;0.80;0.70;;;7.20;99.90;;;;;;5016859;28;20487;-70
2021/10/10 02:41:36;;;;;;;0.70;0.50;;;7.20;99.90;;;;;;5025308;28;20450;-70
2021/10/10 02:44:01;;;;;;;1.17;0.90;;;7.20;99.90;;;;;;5028013;28;20215;-70
2021/10/10 02:46:28;;;;;;;0.70;0.50;;;7.20;99.90;;;;;;5033264;28;20423;-70
2021/10/10 02:48:54;;;;;;;1.00;1.00;;;7.20;99.90;;;;;;5018849;28;20454;-70
2021/10/10 02:51:19;;;;;;;0.80;0.60;;;7.20;99.90;;;;;;5023397;28;20465;-69
2021/10/10 02:53:45;;;;;;;2.23;1.93;;;7.30;99.90;;;;;;5025622;28;20282;-71
2021/10/10 02:56:10;;;;;;;1.30;1.13;;;7.20;99.90;;;;;;5014316;28;20184;-72
2021/10/10 02:58:36;;;;;;;1.93;0.80;;;7.10;99.90;;;;;;5021945;28;20215;-70
2021/10/10 03:01:01;;;;;;;1.37;1.27;;;7.10;99.90;;;;;;5021181;28;20207;-70
2021/10/10 03:03:28;;;;;;;1.00;0.70;;;7.00;99.90;;;;;;5013750;28;20216;-69
2021/10/10 03:05:54;;;;;;;0.70;0.60;;;7.00;99.90;;;;;;5026534;28;20522;-69
2021/10/10 03:08:19;;;;;;;1.27;1.17;;;7.00;99.90;;;;;;5016860;28;20211;-70
2021/10/10 03:10:45;;;;;;;0.80;0.70;;;7.00;99.90;;;;;;5018163;28;20820;-70
2021/10/10 03:13:10;;;;;;;1.37;0.77;;;7.00;99.90;;;;;;5028562;28;20597;-70
2021/10/10 03:15:38;;;;;;;0.70;0.50;;;6.90;99.90;;;;;;5019883;28;20591;-69
2021/10/10 03:18:03;;;;;;;1.57;1.47;;;7.00;99.90;;;;;;5020623;28;20577;-70
2021/10/10 03:20:29;;;;;;;0.80;0.70;;;6.90;99.90;;;;;;5026003;28;20494;-71
2021/10/10 03:22:54;;;;;;;1.10;0.90;;;6.90;99.90;;;;;;5017652;28;20267;-71
2021/10/10 03:25:20;;;;;;;2.70;1.33;;;6.90;99.90;;;;;;5031676;28;20270;-70
2021/10/10 03:27:45;;;;;;;1.00;0.90;;;6.80;99.90;;;;;;5032124;28;20237;-70
2021/10/10 03:30:11;;;;;;;0.90;0.60;;;6.90;99.90;;;;;;5031244;28;20175;-70
2021/10/10 03:32:37;;;;;;;0.70;0.57;;;6.80;99.90;;;;;;5030092;28;20619;-70
2021/10/10 03:35:03;;;;;;;0.70;0.40;;;6.80;99.90;;;;;;5022065;28;20249;-71
2021/10/10 03:37:29;;;;;;;0.80;0.70;;;6.70;99.90;;;;;;5016595;28;20180;-70
2021/10/10 03:39:55;;;;;;;2.20;0.70;;;6.70;99.90;;;;;;5030191;28;20462;-71
2021/10/10 03:42:21;;;;;;;1.17;1.07;;;6.60;99.90;;;;;;5021915;28;20190;-71
2021/10/10 03:44:47;;;;;;;1.20;0.83;;;6.50;99.90;;;;;;5026467;28;20556;-70
2021/10/10 03:47:14;;;;;;;0.70;0.60;;;6.40;99.90;;;;;;5019133;28;20180;-69
2021/10/10 03:49:40;;;;;;;0.80;0.70;;;6.30;99.90;;;;;;5032538;28;20179;-70
2021/10/10 03:52:06;;;;;;;1.37;1.27;;;6.30;99.90;;;;;;5023838;28;20449;-69
2021/10/10 03:57:20;;;;;;;2.50;1.33;;;6.30;99.90;;;;;;5013951;28;20203;-69
2021/10/10 03:59:49;;;;;;;1.23;0.80;;;6.30;99.90;;;;;;5031369;28;20512;-70
2021/10/10 04:02:15;;;;;;;0.80;0.70;;;6.30;99.90;;;;;;5032267;28;20426;-70
2021/10/10 04:04:40;;;;;;;1.13;0.80;;;6.30;99.90;;;;;;5032340;28;20527;-70
2021/10/10 04:07:06;;;;;;;1.00;0.87;;;6.40;99.90;;;;;;5031254;28;20640;-69
2021/10/10 04:09:31;;;;;;;0.70;0.60;;;6.40;99.90;;;;;;5031296;28;20354;-69
2021/10/10 04:11:57;;;;;;;0.70;0.60;;;6.40;99.90;;;;;;5031660;28;20557;-70
2021/10/10 04:14:23;;;;;;;0.90;0.90;;;6.40;99.90;;;;;;5020691;28;21111;-70
2021/10/10 04:16:48;;;;;;;0.70;0.50;;;6.50;99.90;;;;;;5029227;28;20186;-69
2021/10/10 04:19:14;;;;;;;0.80;0.70;;;6.50;99.90;;;;;;5026395;28;20203;-69
2021/10/10 04:21:39;;;;;;;0.80;0.70;;;6.50;99.90;;;;;;5030118;28;20547;-70
2021/10/10 04:24:05;;;;;;;1.10;0.90;;;6.40;99.90;;;;;;5030937;28;20211;-70
2021/10/10 04:26:30;;;;;;;1.20;0.97;;;6.50;99.90;;;;;;5022733;28;20172;-70
2021/10/10 04:28:56;;;;;;;0.70;0.50;;;6.40;99.90;;;;;;5024219;28;20188;-70
2021/10/10 04:31:21;;;;;;;0.70;0.50;;;6.40;99.90;;;;;;5019995;28;20190;-70
2021/10/10 04:33:47;;;;;;;0.90;0.90;;;6.50;99.90;;;;;;5024572;28;20203;-72
2021/10/10 04:36:12;;;;;;;0.80;0.70;;;6.50;99.90;;;;;;5011190;28;20227;-72
2021/10/10 04:38:38;;;;;;;0.70;0.50;;;6.50;99.90;;;;;;5024070;28;20225;-71
2021/10/10 04:41:03;;;;;;;1.27;1.03;;;6.40;99.90;;;;;;5032218;28;20199;-71
2021/10/10 04:43:29;;;;;;;1.03;0.93;;;6.50;99.90;;;;;;5020905;28;20661;-72
2021/10/10 04:45:54;;;;;;;0.70;0.60;;;6.50;99.90;;;;;;5030061;28;20199;-71
2021/10/10 04:48:20;;;;;;;0.70;0.50;;;6.50;99.90;;;;;;5031613;28;20211;-72
2021/10/10 04:50:45;;;;;;;0.80;0.67;;;6.50;99.90;;;;;;5021875;28;20693;-72
2021/10/10 04:53:11;;;;;;;1.40;1.07;;;6.50;99.90;;;;;;5025548;28;20270;-72
2021/10/10 04:55:36;;;;;;;1.37;0.90;;;6.50;99.90;;;;;;5030812;28;20175;-71
2021/10/10 04:58:02;;;;;;;0.80;0.60;;;6.50;99.90;;;;;;5030527;28;20195;-70
2021/10/10 05:00:27;;;;;;;0.70;0.50;;;6.50;99.90;;;;;;5017743;28;20203;-70
2021/10/10 05:02:55;;;;;;;1.20;1.10;;;6.40;99.90;;;;;;5015009;28;20512;-70
2021/10/10 05:05:21;;;;;;;0.70;0.60;;;6.50;99.90;;;;;;5027010;28;20182;-70
2021/10/10 05:07:47;;;;;;;1.63;1.53;;;6.50;99.90;;;;;;5028050;28;20935;-71
2021/10/10 05:10:12;;;;;;;1.00;0.90;;;6.50;99.90;;;;;;5029421;28;20245;-71
2021/10/10 05:12:38;;;;;;;1.47;1.37;;;6.60;99.90;;;;;;5028854;28;20228;-70
2021/10/10 05:15:05;;;;;;;3.50;1.53;;;6.50;99.90;;;;;;5015662;28;20224;-71
2021/10/10 05:17:31;;;;;;;1.10;1.00;;;6.50;99.90;;;;;;5016656;28;20177;-70
2021/10/10 05:19:56;;;;;;;0.73;0.60;;;6.50;99.90;;;;;;5016003;28;20968;-72
2021/10/10 05:22:22;;;;;;;0.93;0.83;;;6.40;99.90;;;;;;5015210;28;20183;-72
2021/10/10 05:24:48;;;;;;;3.50;1.20;;;6.30;99.90;;;;;;5019995;28;20191;-70
2021/10/10 05:27:14;;;;;;;1.37;0.80;;;6.20;99.90;;;;;;5031438;28;20861;-70
2021/10/10 05:29:39;;;;;;;1.07;0.97;;;6.20;99.90;;;;;;5022985;28;20214;-70
2021/10/10 05:32:05;;;;;;;1.20;0.97;;;6.00;99.90;;;;;;5016672;28;20184;-70
2021/10/10 05:34:32;;;;;;;0.70;0.50;;;5.90;99.90;;;;;;5022937;28;20191;-70
2021/10/10 05:36:57;;;;;;;0.87;0.87;;;5.90;99.90;;;;;;5011887;28;20538;-70
2021/10/10 05:39:23;;;;;;;2.40;1.47;;;5.80;99.90;;;;;;5027527;28;20457;-71
2021/10/10 05:41:49;;;;;;;2.87;2.03;;;5.90;99.90;;;;;;5031266;28;20437;-72
2021/10/10 05:44:15;;;;;;;1.30;1.20;;;5.90;99.90;;;;;;5019508;28;20199;-72
2021/10/10 05:46:40;;;;;;;2.00;1.23;;;5.90;99.90;;;;;;5013413;28;20184;-70
2021/10/10 05:49:06;;;;;;;0.80;0.63;;;6.00;99.90;;;;;;5023311;28;20183;-71
2021/10/10 05:51:31;;;;;;;0.70;0.50;;;6.00;99.90;;;;;;5027155;28;20202;-71
2021/10/10 05:53:57;;;;;;;1.10;1.00;;;6.00;99.90;;;;;;5010309;28;20200;-70
2021/10/10 05:56:22;;;;;;;1.37;1.20;;;6.10;99.90;;;;;;5010899;28;20295;-70
2021/10/10 05:58:55;;;;;;;2.30;2.20;;;6.00;99.90;;;;;;5029434;28;20210;-71
2021/10/10 06:01:21;;;;;;;1.80;1.70;;;6.10;99.90;;;;;;5028844;28;20222;-71
2021/10/10 06:03:46;;;;;;;0.70;0.50;;;6.10;99.90;;;;;;5022519;28;20542;-70
2021/10/10 06:06:12;;;;;;;1.40;1.30;;;6.10;99.90;;;;;;5027089;28;20187;-71
2021/10/10 06:08:37;;;;;;;2.87;1.90;;;6.10;99.90;;;;;;5010843;28;20187;-70
2021/10/10 06:11:03;;;;;;;0.80;0.67;;;6.20;99.90;;;;;;5028449;28;20274;-70
2021/10/10 06:13:28;;;;;;;0.80;0.70;;;6.20;99.90;;;;;;5030820;28;20203;-71
2021/10/10 06:15:55;;;;;;;0.90;0.70;;;6.20;99.90;;;;;;5029846;28;20199;-72
2021/10/10 06:18:21;;;;;;;0.80;0.70;;;6.20;99.90;;;;;;5029018;28;20175;-70
2021/10/10 06:20:47;;;;;;;4.30;3.07;;;6.10;99.90;;;;;;5026560;28;20539;-69
2021/10/10 06:23:13;;;;;;;0.80;0.73;;;6.20;99.90;;;;;;5025345;28;20434;-70
2021/10/10 06:25:39;;;;;;;2.03;1.20;;;6.20;99.90;;;;;;5028855;28;20176;-69
2021/10/10 06:28:05;;;;;;;1.60;1.50;;;6.20;99.90;;;;;;5030207;28;20672;-70
2021/10/10 06:30:31;;;;;;;0.70;0.57;;;6.20;99.90;;;;;;5024427;28;20446;-71
2021/10/10 06:32:57;;;;;;;1.53;1.27;;;6.30;99.90;;;;;;5022494;28;20242;-71
2021/10/10 06:35:23;;;;;;;1.10;1.00;;;6.30;99.90;;;;;;5010162;28;20204;-71
2021/10/10 06:37:48;;;;;;;0.70;0.50;;;6.30;99.90;;;;;;5018782;28;21458;-70
2021/10/10 06:40:14;;;;;;;0.70;0.50;;;6.30;99.90;;;;;;5027355;28;20200;-70
2021/10/10 06:42:39;;;;;;;5.07;1.40;;;6.40;99.90;;;;;;5014925;28;20168;-70
2021/10/10 06:45:05;;;;;;;0.90;0.90;;;6.50;99.90;;;;;;5027485;28;20207;-70
2021/10/10 06:47:31;;;;;;;0.70;0.50;;;6.50;99.90;;;;;;5032313;28;20186;-72
2021/10/10 06:49:56;;;;;;;0.70;0.50;;;6.50;99.90;;;;;;5033649;28;20434;-71
2021/10/10 06:52:22;;;;;;;0.70;0.50;;;6.60;99.90;;;;;;5030833;28;20266;-70
2021/10/10 06:54:47;;;;;;;1.47;1.37;;;6.50;99.90;;;;;;5026044;28;20207;-70
2021/10/10 06:57:13;;;;;;;0.70;0.50;;;6.50;99.90;;;;;;5022836;28;20259;-69
2021/10/10 06:59:38;;;;;;;1.47;1.23;;;6.60;99.90;;;;;;5031644;28;20207;-69
2021/10/10 07:02:04;;;;;;;0.70;0.50;;;6.60;99.90;;;;;;5022891;28;20188;-71
2021/10/10 07:04:29;;;;;;;0.70;0.60;;;6.70;99.90;;;;;;5034002;28;20203;-71
2021/10/10 07:06:55;;;;;;;0.70;0.53;;;6.70;99.90;;;;;;5023377;28;20182;-71
2021/10/10 07:09:20;;;;;;;0.80;0.60;;;6.80;99.90;;;;;;5014759;28;20275;-71
2021/10/10 07:11:46;;;;;;;0.73;0.67;;;6.90;99.90;;;;;;5016426;28;20634;-70
2021/10/10 07:14:12;;;;;;;4.33;1.70;;;7.00;99.90;;;;;;5013159;28;20207;-71
2021/10/10 07:16:39;;;;;;;0.90;0.80;;;7.00;99.90;;;;;;5023719;28;20176;-71
2021/10/10 07:19:06;;;;;;;1.53;1.43;;;7.00;99.90;;;;;;5025779;28;20180;-71
2021/10/10 07:21:43;;;;;;;0.70;0.60;;;7.10;99.90;;;;;;5022571;28;20514;-70
2021/10/10 07:26:54;;;;;;;1.40;1.30;;;7.20;99.90;;;;;;5025198;28;20461;-71
2021/10/10 07:29:20;;;;;;;1.17;1.13;;;7.30;99.90;;;;;;5015093;28;20877;-71
2021/10/10 07:31:46;;;;;;;0.80;0.80;;;7.40;99.90;;;;;;5014067;28;20447;-71
2021/10/10 07:34:11;;;;;;;1.23;1.13;;;7.40;99.90;;;;;;5019806;28;20501;-72
2021/10/10 07:36:37;;;;;;;3.67;2.10;;;7.60;99.90;;;;;;5033418;28;20547;-71
2021/10/10 07:39:03;;;;;;;1.00;1.00;;;7.70;99.90;;;;;;5030012;28;20612;-71
2021/10/10 07:41:28;;;;;;;3.50;3.30;;;7.70;99.90;;;;;;5016063;28;20509;-71
2021/10/10 07:43:54;;;;;;;1.67;1.57;;;7.80;99.90;;;;;;5025777;28;20203;-71
2021/10/10 07:46:32;;;;;;;0.90;0.80;;;8.20;99.90;;;;;;5030140;28;20259;-71
2021/10/10 07:48:58;;;;;;;2.80;1.90;;;8.50;99.90;;;;;;5031672;28;20221;-72
2021/10/10 07:51:27;;;;;;;1.27;1.17;;;8.70;99.90;;;;;;5026621;28;20411;-71
2021/10/10 07:53:53;;;;;;;0.80;0.80;;;8.90;99.90;;;;;;5014341;28;20218;-72
2021/10/10 07:56:19;;;;;;;1.97;1.63;;;9.00;99.90;;;;;;5021644;28;20533;-71
2021/10/10 07:58:45;;;;;;;0.70;0.70;;;9.30;99.90;;;;;;5032126;28;20221;-72
2021/10/10 08:01:10;;;;;;;3.07;2.20;;;9.50;99.90;;;;;;5029042;28;20469;-72
2021/10/10 08:03:36;;;;;;;1.27;1.17;;;9.50;99.90;;;;;;5012927;28;20224;-72
2021/10/10 08:06:01;;;;;;;2.50;2.30;;;10.00;99.90;;;;;;5015109;28;20176;-72
2021/10/10 08:08:27;;;;;;;1.97;1.80;;;10.20;99.90;;;;;;5029247;28;20174;-72
2021/10/10 08:10:52;;;;;;;1.87;1.60;;;10.30;99.90;;;;;;5022478;28;20182;-71
2021/10/10 08:13:18;;;;;;;11.63;2.23;;;10.80;99.90;;;;;;5013405;28;20279;-72
2021/10/10 08:15:44;;;;;;;1.20;1.10;;;11.10;99.90;;;;;;5030076;28;20187;-72
2021/10/10 08:18:09;;;;;;;1.43;1.33;;;11.20;99.90;;;;;;5031159;28;20713;-72
2021/10/10 08:20:35;;;;;;;2.50;1.93;;;11.50;99.90;;;;;;5018886;28;20210;-72
2021/10/10 08:23:01;;;;;;;1.90;1.77;;;11.70;99.90;;;;;;5018647;28;20176;-73
2021/10/10 08:25:27;;;;;;;0.90;0.90;;;12.00;99.90;;;;;;5026883;28;20184;-72
2021/10/10 08:27:52;;;;;;;1.77;1.30;;;12.40;99.90;;;;;;5012996;28;20466;-72
2021/10/10 08:30:19;;;;;;;4.03;3.73;;;12.90;99.90;;;;;;5027193;28;20215;-71
2021/10/10 08:32:45;;;;;;;3.07;1.80;;;13.80;99.90;;;;;;5016525;28;20211;-72
2021/10/10 08:35:12;;;;;;;1.93;1.73;;;15.30;99.90;;;;;;5030334;28;20805;-73
2021/10/10 08:37:38;;;;;;;3.93;1.90;;;16.60;99.90;;;;;;5018127;28;20832;-70
2021/10/10 08:40:05;;;;;;;3.93;2.00;;;17.70;99.90;;;;;;5031482;28;20461;-71
2021/10/10 08:42:35;;;;;;;4.17;2.20;;;19.00;99.90;;;;;;5030520;28;20613;-70
2021/10/10 08:45:08;;;;;;;4.83;2.37;;;20.10;99.90;;;;;;5021867;28;20520;-71
2021/10/10 08:47:42;;;;;;;3.97;1.57;;;21.20;99.90;;;;;;5012676;28;20522;-72
2021/10/10 08:50:32;;;;;;;1.90;1.50;;;21.80;96.40;;;;;;5024735;28;20895;-70
2021/10/10 08:53:00;;;;;;;1.40;1.30;;;21.80;94.00;;;;;;5023885;28;20438;-71
2021/10/10 08:55:30;;;;;;;1.53;1.43;;;22.30;90.20;;;;;;5029995;28;20528;-71
2021/10/10 08:57:55;;;;;;;2.17;1.90;;;23.00;88.70;;;;;;5030041;28;20445;-71
2021/10/10 09:00:33;;;;;;;3.13;2.90;;;22.90;86.10;;;;;;5020617;28;20843;-71
2021/10/10 09:03:00;;;;;;;1.50;1.40;;;22.90;84.30;;;;;;5017779;28;20176;-71
2021/10/10 09:05:29;;;;;;;2.97;1.93;;;22.10;84.20;;;;;;5012050;28;20419;-71
2021/10/10 09:07:54;;;;;;;1.93;1.47;;;21.10;90.50;;;;;;5025710;28;20430;-70
2021/10/10 09:10:27;;;;;;;3.43;1.87;;;20.30;94.10;;;;;;5027323;28;20427;-71
2021/10/10 09:13:10;;;;;;;2.97;1.80;;;19.90;99.90;;;;;;5027675;28;20176;-70
2021/10/10 09:15:42;;;;;;;4.83;4.40;;;20.00;99.50;;;;;;5015765;28;20427;-71
2021/10/10 09:18:09;;;;;;;4.17;2.20;;;20.50;98.20;;;;;;5025325;28;20838;-71
2021/10/10 09:20:40;;;;;;;5.50;2.03;;;20.40;94.80;;;;;;5030487;28;20504;-72
2021/10/10 09:23:16;;;;;;;1.90;1.60;;;19.60;97.70;;;;;;5018481;28;20435;-70
2021/10/10 09:26:11;;;;;;;2.40;1.37;;;19.80;99.90;;;;;;5022782;28;20429;-72
2021/10/10 09:28:36;;;;;;;1.97;1.47;;;20.50;99.90;;;;;;5013681;28;20445;-72
2021/10/10 09:31:04;;;;;;;3.70;2.10;;;20.20;99.90;;;;;;5029504;28;20550;-72
2021/10/10 09:33:43;;;;;;;1.03;0.83;;;19.70;99.90;;;;;;5010733;28;20196;-71
2021/10/10 09:36:22;;;;;;;1.97;1.13;;;19.30;99.90;;;;;;5014735;28;20465;-72
2021/10/10 09:39:08;;;;;;;1.63;1.53;;;18.90;99.90;;;;;;5029671;28;20457;-71
2021/10/10 09:46:47;;;;;;;1.43;1.30;;;20.40;99.50;;;;;;5015848;28;20172;-72
2021/10/10 09:49:29;;;;;;;2.57;1.70;;;20.90;97.10;;;;;;5011956;28;20769;-72
2021/10/10 09:52:08;;;;;;;1.03;0.90;;;20.10;96.40;;;;;;5012043;28;20795;-72
2021/10/10 09:54:50;;;;;;;2.67;1.30;;;20.60;97.90;;;;;;5012494;28;20477;-71
2021/10/10 09:57:15;;;;;;;2.20;1.10;;;20.40;99.90;;;;;;5011773;28;20439;-72
2021/10/10 09:59:41;;;;;;;2.13;1.70;;;20.70;99.90;;;;;;5010610;28;20459;-72
2021/10/10 10:02:07;;;;;;;2.67;1.90;;;21.00;99.90;;;;;;5011948;28;20580;-70
2021/10/10 10:04:45;;;;;;;2.17;1.50;;;20.10;98.60;;;;;;5019627;28;20238;-70
2021/10/10 10:07:16;;;;;;;1.60;1.37;;;20.60;96.10;;;;;;5029751;28;20426;-71
2021/10/10 10:09:42;;;;;;;1.60;1.20;;;21.10;97.00;;;;;;5031591;28;20395;-70
2021/10/10 10:12:08;;;;;;;4.00;3.60;;;21.40;97.10;;;;;;5018474;28;20497;-71
2021/10/10 10:14:34;;;;;;;2.43;1.87;;;20.90;90.80;;;;;;5015723;28;20192;-71
2021/10/10 10:17:03;;;;;;;3.13;2.77;;;20.80;90.30;;;;;;5019568;28;20426;-72
2021/10/10 10:19:30;;;;;;;3.10;2.47;;;21.60;91.90;;;;;;5015265;28;20966;-72
2021/10/10 10:21:59;;;;;;;2.20;1.73;;;21.80;91.60;;;;;;5015405;28;20461;-71
2021/10/10 10:24:27;;;;;;;3.10;2.53;;;22.00;92.10;;;;;;5020850;28;20430;-72
2021/10/10 10:26:53;;;;;;;2.77;2.23;;;22.90;90.20;;;;;;5014962;28;20423;-72
2021/10/10 10:29:26;;;;;;;2.47;1.43;;;22.80;82.70;;;;;;5016092;28;20431;-71
2021/10/10 10:31:54;;;;;;;3.53;1.67;;;22.90;82.00;;;;;;5027321;28;20778;-72
2021/10/10 10:34:21;;;;;;;2.90;2.33;;;23.30;82.20;;;;;;5034537;28;20445;-73
2021/10/10 10:37:07;;;;;;;2.87;2.67;;;23.70;80.00;;;;;;5026774;28;20419;-72
2021/10/10 10:39:50;;;;;;;2.93;2.73;;;24.40;78.70;;;;;;5015133;28;20458;-72
2021/10/10 10:42:25;;;;;;;1.63;1.53;;;24.00;74.00;;;;;;5030617;28;20501;-72
2021/10/10 10:44:55;;;;;;;2.23;1.80;;;24.30;76.10;;;;;;5033948;28;20433;-72
2021/10/10 10:47:37;;;;;;;1.60;1.47;;;24.50;72.70;;;;;;5029630;28;20466;-72
2021/10/10 10:50:05;;;;;;;4.50;3.53;;;24.70;72.20;;;;;;5014855;28;20411;-72
2021/10/10 10:52:42;;;;;;;2.27;2.10;;;24.90;70.50;;;;;;5033632;28;20426;-72
2021/10/10 10:55:19;;;;;;;4.17;2.93;;;25.00;70.70;;;;;;5033018;28;20469;-72
2021/10/10 10:58:01;;;;;;;3.23;2.13;;;25.50;69.40;;;;;;5023788;28;20844;-73
2021/10/10 11:00:28;;;;;;;2.80;1.33;;;25.50;67.00;;;;;;5034057;28;20549;-73
2021/10/10 11:03:13;;;;;;;2.70;2.50;;;26.80;65.90;;;;;;5023701;28;20427;-73
2021/10/10 11:05:41;;;;;;;2.77;2.57;;;27.00;62.90;;;;;;5013009;28;20469;-73
2021/10/10 11:08:15;;;;;;;5.70;2.60;;;27.20;61.00;;;;;;5017026;28;20997;-72
2021/10/10 11:11:03;;;;;;;2.00;1.90;;;27.60;59.90;;;;;;5018116;28;20438;-72
2021/10/10 11:13:35;;;;;;;1.87;1.77;;;27.40;57.70;;;;;;5014360;28;20431;-73
2021/10/10 11:16:19;;;;;;;2.97;2.30;;;27.70;57.20;;;;;;5013009;28;20434;-72
2021/10/10 11:18:46;;;;;;;1.87;1.77;;;27.30;56.80;;;;;;5014159;28;20406;-73
2021/10/10 11:21:14;;;;;;;1.90;1.70;;;26.20;57.60;;;;;;5012924;28;20833;-72
2021/10/10 11:23:41;;;;;;;1.47;1.37;;;25.70;59.40;;;;;;5014234;28;20431;-73
2021/10/10 11:26:12;;;;;;;2.37;2.17;;;25.10;61.10;;;;;;5020630;28;20417;-71
2021/10/10 11:28:46;;;;;;;4.73;2.83;;;24.60;61.80;;;;;;5033963;28;20402;-73
2021/10/10 11:31:20;;;;;;;2.77;2.57;;;24.60;64.20;;;;;;5033915;28;20406;-73
2021/10/10 11:33:57;;;;;;;8.03;3.70;;;25.30;63.30;;;;;;5033745;28;20456;-73
2021/10/10 11:36:51;;;;;;;3.53;2.80;;;25.50;61.20;;;;;;5018806;28;20935;-73
2021/10/10 11:39:24;;;;;;;2.30;2.13;;;26.50;60.60;;;;;;5013524;28;20484;-72
2021/10/10 11:41:55;;;;;;;2.10;1.63;;;27.10;58.50;;;;;;5013913;28;20426;-71
2021/10/10 11:44:25;;;;;;;2.00;1.83;;;27.50;58.70;;;;;;5014599;28;20525;-72
2021/10/10 11:47:00;;;;;;;2.17;1.93;;;27.30;56.90;;;;;;5012419;28;20428;-71
2021/10/10 11:49:42;;;;;;;3.47;3.20;;;26.70;57.80;;;;;;5013628;28;20426;-74
2021/10/10 11:52:29;;;;;;;1.73;1.50;;;26.90;57.00;;;;;;5013140;28;20935;-70
2021/10/10 11:57:31;;;;;;;2.30;2.10;;;27.50;56.10;;;;;;5016133;28;20477;-73
2021/10/10 12:00:03;;;;;;;2.70;2.07;;;27.70;56.60;;;;;;5031411;28;20481;-71
2021/10/10 12:02:46;;;;;;;2.10;1.90;;;28.40;54.20;;;;;;5033379;28;20186;-70
2021/10/10 12:05:14;;;;;;;2.53;2.30;;;27.60;54.30;;;;;;5032865;28;20421;-70
2021/10/10 12:07:41;;;;;;;1.70;1.60;;;27.10;55.20;;;;;;5017476;28;20419;-71
2021/10/10 12:10:10;;;;;;;2.77;2.57;;;26.60;56.60;;;;;;5014295;28;20483;-71
2021/10/10 12:12:36;;;;;;;2.33;2.13;;;26.30;56.70;;;;;;5013334;28;20451;-72
2021/10/10 12:15:03;;;;;;;3.10;2.70;;;27.70;56.00;;;;;;5012980;28;20459;-71
2021/10/10 12:17:35;;;;;;;2.40;2.20;;;28.20;54.60;;;;;;5013386;28;20180;-72
2021/10/10 12:20:15;;;;;;;3.63;2.10;;;29.40;53.00;;;;;;5013173;28;20443;-72
2021/10/10 12:23:13;;;;;;;2.73;2.50;;;30.10;51.00;;;;;;5013236;28;20502;-72
2021/10/10 12:25:40;;;;;;;5.00;2.23;;;31.10;50.40;;;;;;5000103;28;20938;-71
2021/10/10 12:28:18;;;;;;;3.33;2.67;;;31.90;48.50;;;;;;5016738;28;20445;-72
2021/10/10 12:30:58;;;;;;;2.57;1.80;;;32.40;47.60;;;;;;5013356;28;20422;-72
2021/10/10 12:33:35;;;;;;;5.53;2.30;;;32.20;46.50;;;;;;5012962;28;20497;-72
2021/10/10 12:36:08;;;;;;;3.50;3.20;;;32.00;46.40;;;;;;5012554;28;20433;-71
2021/10/10 12:38:46;;;;;;;3.27;2.80;;;32.50;46.20;;;;;;5013833;28;20423;-71
2021/10/10 12:41:21;;;;;;;2.37;2.10;;;31.90;45.70;;;;;;5013059;28;20988;-71
2021/10/10 12:44:13;;;;;;;3.83;3.43;;;31.50;45.10;;;;;;5013675;28;20434;-73
2021/10/10 12:46:56;;;;;;;4.87;2.23;;;31.70;45.50;;;;;;5019529;28;20500;-72
2021/10/10 12:49:33;;;;;;;3.10;2.80;;;31.50;46.20;;;;;;5032434;28;20912;-71
2021/10/10 12:52:01;;;;;;;2.87;2.53;;;31.80;46.60;;;;;;5014622;28;20411;-72
2021/10/10 12:54:29;;;;;;;3.10;2.80;;;31.00;46.30;;;;;;5012540;28;20438;-72
2021/10/10 12:57:10;;;;;;;2.23;2.03;;;31.20;45.80;;;;;;5012033;28;20431;-72
2021/10/10 12:59:38;;;;;;;3.20;2.50;;;32.00;46.40;;;;;;5012412;28;20513;-72
2021/10/10 13:02:08;;;;;;;4.50;2.23;;;31.90;44.60;;;;;;5013527;28;20514;-71
2021/10/10 13:04:36;;;;;;;3.23;2.17;;;31.80;44.30;;;;;;5012110;28;20901;-72
2021/10/10 13:07:02;;;;;;;5.60;2.40;;;32.60;45.00;;;;;;5012317;28;20430;-71
2021/10/10 13:09:30;;;;;;;3.83;2.40;;;32.90;44.20;;;;;;5012082;28;20404;-71
2021/10/10 13:11:57;;;;;;;2.87;2.50;;;32.60;43.70;;;;;;5011325;28;20168;-72